Time;durP1;ratioP1;P1;durP2;ratioP2;P2;SDS_P1;SDS_P2;PMS_P1;PMS_P2;Temp;Humidity;BMP_temperature;BMP_pressure;BME280_temperature;BME280_humidity;BME280_pressure;Samples;Min_cycle;Max_cycle;Signal;HPM_P1;HPM_P2
2022/07/03 00:01:39;;;;;;;14.50;8.65;;;;;;;18.31;80.93;93923.50;5071239;28;20020;-37
2022/07/03 00:04:05;;;;;;;12.70;8.60;;;;;;;18.20;81.92;93927.63;5071593;28;20017;-38
2022/07/03 00:06:31;;;;;;;16.40;8.65;;;;;;;18.29;81.99;93929.69;5071512;28;20028;-38
2022/07/03 00:08:58;;;;;;;11.95;8.25;;;;;;;18.27;80.97;93921.16;5070719;28;20054;-37
2022/07/03 00:11:24;;;;;;;12.85;8.25;;;;;;;18.27;81.04;93909.97;5063643;28;20030;-37
2022/07/03 00:13:50;;;;;;;13.52;8.15;;;;;;;18.53;79.39;93922.34;5063814;28;20021;-37
2022/07/03 00:16:16;;;;;;;15.02;7.90;;;;;;;18.66;78.59;93922.66;5071039;28;20113;-37
2022/07/03 00:18:42;;;;;;;12.68;7.85;;;;;;;18.27;80.13;93931.59;5071024;28;20497;-37
2022/07/03 00:21:09;;;;;;;12.90;8.18;;;;;;;18.44;80.96;93928.66;5053013;28;20025;-37
2022/07/03 00:23:40;;;;;;;9.02;7.95;;;;;;;18.53;80.08;93931.50;5069069;28;20532;-37
2022/07/03 00:26:06;;;;;;;15.50;9.25;;;;;;;18.17;81.39;93932.31;5061992;28;20020;-37
2022/07/03 00:28:31;;;;;;;12.05;8.02;;;;;;;18.07;81.71;93931.59;5069529;28;20417;-37
2022/07/03 00:30:57;;;;;;;20.02;8.18;;;;;;;17.99;81.58;93928.22;5053930;28;20021;-37
2022/07/03 00:33:26;;;;;;;14.32;8.77;;;;;;;17.87;81.85;93924.50;5057854;28;20029;-37
2022/07/03 00:35:54;;;;;;;12.38;9.02;;;;;;;18.05;80.34;93928.66;5070607;28;20041;-37
2022/07/03 00:38:21;;;;;;;14.35;8.77;;;;;;;18.09;80.20;93928.19;5070937;28;20048;-37
2022/07/03 00:40:46;;;;;;;14.75;8.68;;;;;;;18.07;81.68;93919.66;5069467;28;20467;-37
2022/07/03 00:43:14;;;;;;;17.85;9.48;;;;;;;18.01;81.56;93908.78;5067748;28;20062;-37
2022/07/03 00:45:45;;;;;;;11.50;9.10;;;;;;;18.13;80.74;93922.91;5049328;28;20679;-37
2022/07/03 00:48:13;;;;;;;13.10;8.65;;;;;;;18.11;81.09;93914.38;5050575;28;20064;-38
2022/07/03 00:50:45;;;;;;;12.32;8.52;;;;;;;18.21;80.74;93909.53;5049631;28;20071;-37
2022/07/03 00:53:11;;;;;;;19.35;8.70;;;;;;;17.91;81.09;93913.63;5050547;28;20043;-37
2022/07/03 00:55:37;;;;;;;14.90;8.57;;;;;;;17.79;81.34;93918.31;5050812;28;20090;-38
2022/07/03 00:58:02;;;;;;;12.27;9.63;;;;;;;17.67;81.74;93917.38;5049533;28;20451;-38
2022/07/03 01:00:28;;;;;;;16.83;7.57;;;;;;;17.85;81.12;93896.41;5049494;28;20028;-37
2022/07/03 01:02:56;;;;;;;9.73;7.57;;;;;;;17.76;81.09;93902.72;5050634;28;20032;-37
2022/07/03 01:05:24;;;;;;;9.50;8.05;;;;;;;17.90;80.83;93900.25;5050223;28;20068;-38
2022/07/03 01:08:11;;;;;;;9.38;8.23;;;;;;;17.79;80.97;93901.56;5050622;28;20025;-38
2022/07/03 01:11:14;;;;;;;11.00;7.68;;;;;;;17.73;80.92;93895.53;5056566;28;20034;-37
2022/07/03 01:14:10;;;;;;;13.60;9.23;;;;;;;17.96;80.17;93895.84;5070250;28;20021;-37
2022/07/03 01:16:58;;;;;;;8.07;7.07;;;;;;;17.85;80.57;93892.88;5070230;28;20016;-38
2022/07/03 01:19:43;;;;;;;8.63;6.78;;;;;;;17.99;80.11;93880.72;5070521;28;20024;-38
2022/07/03 01:22:14;;;;;;;12.88;7.82;;;;;;;17.85;80.61;93885.25;5070356;28;20028;-38
2022/07/03 01:24:39;;;;;;;17.88;7.85;;;;;;;17.80;81.17;93886.25;5070366;28;20020;-37
2022/07/03 01:27:07;;;;;;;12.55;8.32;;;;;;;17.49;82.58;93893.66;5070432;28;20103;-38
2022/07/03 01:29:56;;;;;;;13.48;9.18;;;;;;;17.43;82.08;93899.50;5069044;28;20485;-38
2022/07/03 01:32:24;;;;;;;9.20;7.97;;;;;;;17.53;81.39;93896.06;5070019;28;20099;-38
2022/07/03 01:34:52;;;;;;;9.25;8.10;;;;;;;17.33;81.38;93901.56;5069838;28;20040;-38
2022/07/03 01:37:20;;;;;;;8.50;7.15;;;;;;;17.34;81.23;93893.91;5070024;28;20016;-38
2022/07/03 01:39:49;;;;;;;9.90;7.43;;;;;;;17.47;81.09;93890.00;5069170;28;20055;-39
2022/07/03 01:42:15;;;;;;;11.65;7.63;;;;;;;17.43;80.59;93893.22;5070320;28;20089;-38
2022/07/03 01:44:41;;;;;;;14.63;8.68;;;;;;;17.39;80.75;93892.88;5068626;28;20029;-38
2022/07/03 01:47:06;;;;;;;18.08;8.25;;;;;;;17.34;81.40;93891.13;5071893;28;20073;-38
2022/07/03 01:49:32;;;;;;;17.40;9.70;;;;;;;17.29;82.50;93889.34;5074248;28;20021;-38
2022/07/03 01:51:58;;;;;;;13.00;10.02;;;;;;;17.35;83.12;93887.75;5074140;28;20017;-39
2022/07/03 01:54:26;;;;;;;25.90;12.38;;;;;;;17.17;83.25;93864.03;5072943;28;20040;-38
2022/07/03 01:56:54;;;;;;;22.52;9.05;;;;;;;17.42;81.41;93866.63;5073346;28;20524;-39
2022/07/03 01:59:19;;;;;;;19.27;9.35;;;;;;;17.57;80.45;93880.34;5073072;28;20505;-38
2022/07/03 02:02:00;;;;;;;11.68;8.48;;;;;;;17.68;80.80;93896.53;5073775;28;20100;-38
2022/07/03 02:04:34;;;;;;;9.85;7.90;;;;;;;17.48;81.69;93897.06;5073595;28;20025;-38
2022/07/03 02:07:09;;;;;;;13.90;9.15;;;;;;;17.52;82.04;93886.94;5073692;28;20127;-38
2022/07/03 02:09:49;;;;;;;10.68;9.63;;;;;;;17.54;80.90;93889.16;5072319;28;20038;-38
2022/07/03 02:12:16;;;;;;;14.27;8.70;;;;;;;17.61;80.50;93882.69;5072623;28;20039;-38
2022/07/03 02:14:51;;;;;;;21.58;8.18;;;;;;;17.60;80.55;93886.81;5072247;28;20051;-37
2022/07/03 02:17:18;;;;;;;12.82;9.30;;;;;;;17.62;80.09;93887.72;5072519;28;20028;-38
2022/07/03 02:19:53;;;;;;;13.10;8.65;;;;;;;17.39;81.38;93890.84;5073420;28;20025;-37
2022/07/03 02:22:20;;;;;;;10.02;8.18;;;;;;;17.39;80.74;93882.47;5073489;28;20082;-38
2022/07/03 02:24:46;;;;;;;9.23;7.55;;;;;;;17.29;80.87;93880.97;5073230;28;20032;-37
2022/07/03 02:27:23;;;;;;;9.95;7.90;;;;;;;17.34;81.07;93888.34;5073086;28;20026;-38
2022/07/03 02:30:06;;;;;;;11.40;9.80;;;;;;;17.35;81.52;93893.34;5073228;28;20048;-38
2022/07/03 02:32:45;;;;;;;12.38;9.40;;;;;;;17.34;80.59;93889.09;5072686;28;20025;-38
2022/07/03 02:35:34;;;;;;;18.73;10.60;;;;;;;17.27;80.91;93887.13;5069064;28;20098;-38
2022/07/03 02:38:19;;;;;;;20.35;10.25;;;;;;;17.24;81.05;93891.09;5070346;28;20143;-38
2022/07/03 02:40:58;;;;;;;15.85;10.52;;;;;;;17.15;81.73;93893.84;5056220;28;20112;-38
2022/07/03 02:43:43;;;;;;;19.83;10.30;;;;;;;17.18;81.54;93890.63;5051941;28;20029;-38
2022/07/03 02:49:39;;;;;;;14.52;10.23;;;;;;;17.10;81.38;93895.59;5071989;28;20094;-38
2022/07/03 02:52:22;;;;;;;13.70;9.75;;;;;;;17.12;81.31;93890.16;5072840;28;20028;-38
2022/07/03 02:54:51;;;;;;;13.80;8.98;;;;;;;17.21;81.00;93891.53;5072803;28;20645;-38
2022/07/03 02:57:19;;;;;;;9.32;8.43;;;;;;;17.23;80.28;93898.00;5054415;28;20424;-37
2022/07/03 02:59:58;;;;;;;9.80;7.97;;;;;;;16.95;81.57;93897.88;5052664;28;20028;-37
2022/07/03 03:02:53;;;;;;;18.17;8.95;;;;;;;17.03;81.15;93895.69;5052773;28;20029;-37
2022/07/03 03:05:21;;;;;;;13.63;7.55;;;;;;;17.15;79.95;93900.16;5072724;28;20052;-37
2022/07/03 03:07:53;;;;;;;120.05;16.23;;;;;;;17.05;80.52;93904.22;5072565;28;20078;-37
2022/07/03 03:10:19;;;;;;;30.05;27.20;;;;;;;16.88;81.11;93898.72;5072685;28;20036;-37
2022/07/03 03:12:47;;;;;;;12.20;9.48;;;;;;;16.65;82.83;93902.53;5072682;28;20417;-37
2022/07/03 03:15:13;;;;;;;21.17;9.83;;;;;;;16.57;83.23;93899.13;5071061;28;20025;-38
2022/07/03 03:17:43;;;;;;;13.93;9.52;;;;;;;16.45;83.77;93903.72;5072300;28;20430;-38
2022/07/03 03:20:16;;;;;;;11.63;8.98;;;;;;;16.58;83.22;93914.56;5072252;28;20520;-38
2022/07/03 03:23:17;;;;;;;16.60;9.38;;;;;;;16.72;81.88;93916.97;5071463;28;20495;-38
2022/07/03 03:25:43;;;;;;;11.10;8.13;;;;;;;16.79;81.58;93916.13;5048786;28;20048;-38
2022/07/03 03:28:08;;;;;;;18.25;8.77;;;;;;;16.80;81.24;93907.19;5071217;28;20107;-38
2022/07/03 03:30:36;;;;;;;15.13;9.05;;;;;;;16.77;81.58;93907.59;5071240;28;20631;-38
2022/07/03 03:33:01;;;;;;;12.07;9.10;;;;;;;16.64;82.63;93911.50;5071903;28;20032;-38
2022/07/03 03:35:27;;;;;;;13.43;9.38;;;;;;;16.68;82.01;93917.38;5071718;28;20126;-39
2022/07/03 03:37:53;;;;;;;14.23;9.00;;;;;;;16.65;82.31;93902.53;5071905;28;20111;-39
2022/07/03 03:40:19;;;;;;;11.30;7.63;;;;;;;16.80;81.49;93900.88;5071826;28;20059;-38
2022/07/03 03:42:44;;;;;;;8.05;6.95;;;;;;;16.92;81.07;93912.97;5071007;28;20060;-38
2022/07/03 03:45:10;;;;;;;9.35;7.30;;;;;;;16.98;81.06;93905.81;5070862;28;20033;-38
2022/07/03 03:47:36;;;;;;;7.90;7.20;;;;;;;17.01;80.75;93909.50;5072010;28;20034;-39
2022/07/03 03:50:02;;;;;;;8.23;7.47;;;;;;;17.12;80.61;93901.31;5071643;28;20028;-39
2022/07/03 03:52:32;;;;;;;8.68;7.88;;;;;;;17.22;80.39;93906.94;5071546;28;20074;-37
2022/07/03 03:54:57;;;;;;;9.15;7.35;;;;;;;17.31;80.50;93906.97;5071609;28;20025;-37
2022/07/03 03:57:24;;;;;;;7.88;6.82;;;;;;;17.31;80.58;93904.19;5071689;28;20078;-38
2022/07/03 03:59:50;;;;;;;10.20;7.13;;;;;;;17.37;80.69;93901.84;5071466;28;20089;-37
2022/07/03 04:02:16;;;;;;;9.05;7.28;;;;;;;17.42;81.20;93897.31;5071571;28;20472;-37
2022/07/03 04:04:41;;;;;;;8.13;7.32;;;;;;;17.45;81.21;93896.16;5070691;28;20704;-37
2022/07/03 04:07:07;;;;;;;8.90;7.28;;;;;;;17.40;80.89;93889.53;5070698;28;20040;-37
2022/07/03 04:09:33;;;;;;;8.98;7.50;;;;;;;17.38;81.56;93902.59;5069077;28;20020;-37
2022/07/03 04:11:58;;;;;;;9.40;8.50;;;;;;;17.40;82.36;93903.50;5070718;28;20032;-37
2022/07/03 04:14:24;;;;;;;9.35;8.20;;;;;;;17.41;83.35;93895.84;5070605;28;20085;-37
2022/07/03 04:16:50;;;;;;;10.13;8.00;;;;;;;17.46;83.50;93903.19;5070625;28;20028;-37
2022/07/03 04:19:15;;;;;;;8.82;7.55;;;;;;;17.62;83.49;93903.72;5070037;28;20107;-37
2022/07/03 04:21:41;;;;;;;10.75;7.70;;;;;;;17.80;83.05;93899.50;5067562;28;20031;-37
2022/07/03 04:24:06;;;;;;;8.50;7.60;;;;;;;17.81;83.18;93898.16;5070762;28;20059;-38
2022/07/03 04:26:32;;;;;;;8.88;7.43;;;;;;;17.90;83.08;93889.81;5069339;28;20429;-37
2022/07/03 04:28:57;;;;;;;8.90;8.05;;;;;;;17.94;83.13;93898.50;5070749;28;20114;-37
2022/07/03 04:31:23;;;;;;;8.65;7.82;;;;;;;18.01;83.15;93900.41;5064124;28;20029;-38
2022/07/03 04:33:48;;;;;;;8.77;7.88;;;;;;;18.01;83.52;93902.47;5073422;28;20508;-38
2022/07/03 04:36:15;;;;;;;9.02;8.13;;;;;;;18.04;83.27;93902.00;5084616;28;20102;-38
2022/07/03 04:38:40;;;;;;;29.38;8.75;;;;;;;18.05;82.85;93903.50;5086964;28;20428;-38
2022/07/03 04:41:05;;;;;;;10.90;7.13;;;;;;;18.04;82.83;93901.31;5070365;28;20424;-38
2022/07/03 04:43:31;;;;;;;9.70;7.32;;;;;;;17.94;82.89;93912.47;5070414;28;20036;-37
2022/07/03 04:45:56;;;;;;;7.75;7.05;;;;;;;17.98;82.77;93896.00;5069778;28;20020;-37
2022/07/03 04:48:22;;;;;;;15.30;7.88;;;;;;;17.99;82.79;93903.06;5064686;28;20048;-38
2022/07/03 04:50:47;;;;;;;8.27;7.47;;;;;;;17.81;83.97;93904.50;5063111;28;20035;-38
2022/07/03 04:53:13;;;;;;;8.75;7.85;;;;;;;17.87;84.48;93902.16;5070088;28;20032;-37
2022/07/03 04:55:38;;;;;;;18.55;17.08;;;;;;;17.89;85.61;93904.34;5070295;28;20032;-37
2022/07/03 04:58:04;;;;;;;18.75;17.10;;;;;;;17.84;86.10;93906.13;5063494;28;20037;-37
2022/07/03 05:00:29;;;;;;;19.63;18.05;;;;;;;17.96;86.04;93909.06;5052775;28;20032;-37
2022/07/03 05:02:55;;;;;;;12.85;9.32;;;;;;;18.19;85.09;93898.22;5050024;28;20111;-37
2022/07/03 05:05:21;;;;;;;13.82;12.48;;;;;;;18.24;85.20;93902.03;5050340;28;20068;-37
2022/07/03 05:07:47;;;;;;;17.50;15.93;;;;;;;18.40;84.89;93897.63;5050041;28;20457;-37
2022/07/03 05:10:12;;;;;;;10.68;9.65;;;;;;;18.50;84.76;93889.97;5049926;28;20027;-37
2022/07/03 05:12:37;;;;;;;18.48;16.67;;;;;;;18.66;84.30;93896.72;5049742;28;20024;-37
2022/07/03 05:15:03;;;;;;;13.25;11.95;;;;;;;18.83;84.25;93893.75;5050208;28;20040;-38
2022/07/03 05:17:29;;;;;;;11.40;10.30;;;;;;;18.92;84.59;93904.19;5049794;28;20504;-38
2022/07/03 05:22:39;;;;;;;11.30;9.73;;;;;;;19.08;83.47;93893.41;5062650;28;20043;-37
2022/07/03 05:25:05;;;;;;;13.65;10.70;;;;;;;19.02;84.19;93890.88;5068383;28;20032;-38
2022/07/03 05:27:31;;;;;;;12.20;9.73;;;;;;;19.18;83.76;93897.63;5069680;28;20024;-38
2022/07/03 05:29:56;;;;;;;16.23;10.65;;;;;;;19.37;83.13;93896.84;5069402;28;20441;-38
2022/07/03 05:32:21;;;;;;;20.90;12.90;;;;;;;19.45;83.78;93898.13;5068611;28;20033;-38
2022/07/03 05:34:47;;;;;;;14.70;13.10;;;;;;;19.55;83.49;93898.81;5069256;28;20056;-38
2022/07/03 05:37:12;;;;;;;12.82;11.50;;;;;;;19.66;82.82;93900.94;5069455;28;20031;-37
2022/07/03 06:06:58;;;;;;;11.77;10.60;;;;;;;21.03;78.04;93914.84;5128449;27;20629;-39
2022/07/03 06:09:24;;;;;;;12.60;10.23;;;;;;;20.97;77.48;93911.63;5128420;27;20485;-40
2022/07/03 06:11:49;;;;;;;11.07;9.88;;;;;;;20.95;78.91;93912.25;5127549;27;20112;-40
2022/07/03 06:14:15;;;;;;;12.02;9.60;;;;;;;20.90;80.14;93913.31;5107524;27;20020;-39
2022/07/03 06:16:40;;;;;;;12.50;10.13;;;;;;;20.92;80.96;93912.72;5107707;28;20020;-39
2022/07/03 06:19:06;;;;;;;11.07;9.95;;;;;;;20.97;80.71;93922.84;5107434;28;20027;-39
2022/07/03 06:21:32;;;;;;;11.77;9.98;;;;;;;21.02;80.58;93924.59;5107058;28;20020;-39
2022/07/03 06:23:58;;;;;;;16.33;9.70;;;;;;;21.10;80.69;93922.31;5106758;28;20526;-40
2022/07/03 06:26:23;;;;;;;13.45;10.82;;;;;;;21.11;80.87;93924.50;5106709;28;20016;-39
2022/07/03 06:28:49;;;;;;;13.85;11.02;;;;;;;21.26;80.45;93923.31;5107253;28;20035;-39
2022/07/03 06:31:15;;;;;;;13.52;10.93;;;;;;;21.35;79.88;93921.75;5106766;28;20027;-39
2022/07/03 06:33:40;;;;;;;11.85;10.15;;;;;;;21.39;80.51;93924.78;5106981;28;20412;-40
2022/07/03 06:36:06;;;;;;;12.30;11.00;;;;;;;21.48;80.11;93916.25;5106914;28;20481;-39
2022/07/03 06:38:31;;;;;;;13.75;11.40;;;;;;;21.43;80.21;93916.63;5106816;28;20020;-39
2022/07/03 06:40:57;;;;;;;12.95;10.95;;;;;;;21.52;79.72;93924.19;5106960;28;20427;-38
2022/07/03 06:43:22;;;;;;;11.10;10.00;;;;;;;21.60;79.13;93922.63;5123870;28;20102;-39
2022/07/03 06:45:48;;;;;;;19.38;11.02;;;;;;;21.71;79.26;93913.44;5124074;27;20035;-39
2022/07/03 06:48:14;;;;;;;12.98;11.27;;;;;;;21.77;78.54;93915.88;5106813;28;20024;-38
2022/07/03 06:50:39;;;;;;;15.40;10.65;;;;;;;21.92;78.57;93915.41;5125119;28;20484;-39
2022/07/03 06:53:05;;;;;;;12.25;10.95;;;;;;;21.93;78.66;93914.06;5127167;27;20023;-39
2022/07/03 06:55:30;;;;;;;12.43;11.13;;;;;;;21.85;77.93;93922.03;5127056;27;20019;-38
2022/07/03 06:57:56;;;;;;;27.55;12.27;;;;;;;21.96;78.98;93912.13;5125895;27;20051;-38
2022/07/03 07:00:21;;;;;;;12.32;10.38;;;;;;;22.20;78.50;93910.75;5124414;27;20537;-38
2022/07/03 07:02:47;;;;;;;12.75;10.68;;;;;;;22.21;77.68;93918.56;5120540;27;20019;-38
2022/07/03 07:05:12;;;;;;;12.93;11.13;;;;;;;22.14;78.75;93911.09;5116040;27;20055;-38
2022/07/03 07:07:38;;;;;;;12.60;11.25;;;;;;;22.16;78.46;93911.22;5113028;27;20085;-38
2022/07/03 07:10:04;;;;;;;11.65;10.45;;;;;;;22.31;77.12;93912.75;5092623;28;20032;-38
2022/07/03 07:12:29;;;;;;;12.90;11.00;;;;;;;22.54;76.61;93915.53;5093046;28;20108;-38
2022/07/03 07:14:55;;;;;;;12.38;11.05;;;;;;;22.74;76.06;93905.41;5091673;28;20039;-38
2022/07/03 07:17:20;;;;;;;17.50;11.18;;;;;;;22.87;75.27;93910.38;5100632;28;20122;-38
2022/07/03 07:19:46;;;;;;;11.68;10.48;;;;;;;23.00;74.95;93906.88;5104034;28;20073;-38
2022/07/03 07:22:11;;;;;;;11.60;10.40;;;;;;;23.09;73.95;93906.00;5101715;28;20061;-38
2022/07/03 07:24:37;;;;;;;10.70;9.48;;;;;;;23.22;72.46;93908.13;5112996;28;20462;-38
2022/07/03 07:27:03;;;;;;;11.93;9.95;;;;;;;23.27;72.04;93897.78;5113188;28;20095;-38
2022/07/03 07:29:28;;;;;;;24.80;11.18;;;;;;;23.42;72.59;93900.03;5112863;28;20496;-38
2022/07/03 07:31:54;;;;;;;20.13;12.07;;;;;;;23.51;73.50;93895.56;5110197;28;20027;-38
2022/07/03 07:34:19;;;;;;;25.17;11.48;;;;;;;23.58;72.08;93891.72;5101034;28;20443;-36
2022/07/03 07:36:45;;;;;;;10.27;9.15;;;;;;;23.63;70.81;93894.13;5103494;28;20031;-38
2022/07/03 07:39:10;;;;;;;10.18;9.20;;;;;;;23.72;67.80;93895.28;5101970;28;20027;-38
2022/07/03 07:41:37;;;;;;;11.50;10.30;;;;;;;23.83;67.89;93894.44;5106927;28;20035;-38
2022/07/03 07:44:03;;;;;;;13.20;9.52;;;;;;;24.00;68.63;93897.47;5104842;27;20028;-38
2022/07/03 07:46:29;;;;;;;12.07;9.68;;;;;;;24.26;69.54;93897.38;5099689;28;20030;-38
2022/07/03 07:48:54;;;;;;;10.48;9.40;;;;;;;24.86;67.91;93896.84;5102512;28;20126;-38
2022/07/03 07:51:20;;;;;;;9.75;8.80;;;;;;;25.41;65.22;93895.22;5101437;27;20535;-39
2022/07/03 07:53:46;;;;;;;9.95;8.55;;;;;;;25.70;63.68;93891.63;5102111;28;20092;-36
2022/07/03 07:56:11;;;;;;;9.43;8.02;;;;;;;26.61;59.19;93899.88;5102858;28;20056;-39
2022/07/03 07:58:37;;;;;;;9.18;6.80;;;;;;;27.62;55.72;93895.41;5102201;28;20050;-39
2022/07/03 08:06:30;;;;;;;6.90;5.90;;;;;;;30.69;47.08;93884.72;5102111;28;20143;-38
2022/07/03 08:08:56;;;;;;;8.18;6.97;;;;;;;30.54;44.15;93890.72;5104013;28;20531;-38
2022/07/03 08:11:21;;;;;;;6.57;5.97;;;;;;;30.27;47.33;93880.72;5106288;27;20096;-38
2022/07/03 08:13:47;;;;;;;11.65;6.40;;;;;;;29.73;49.15;93888.44;5101669;28;20016;-38
2022/07/03 08:16:13;;;;;;;8.75;6.57;;;;;;;29.54;48.21;93877.16;5100041;28;20506;-38
2022/07/03 08:18:39;;;;;;;8.20;6.55;;;;;;;29.21;49.97;93887.56;5101038;27;20484;-38
2022/07/03 08:21:05;;;;;;;7.63;6.88;;;;;;;29.09;50.34;93887.13;5103257;28;20031;-38
2022/07/03 08:23:30;;;;;;;6.60;5.97;;;;;;;29.61;49.23;93893.75;5100384;28;20019;-38
2022/07/03 08:25:56;;;;;;;6.28;5.65;;;;;;;30.23;45.35;93889.16;5101915;28;20028;-39
2022/07/03 08:28:21;;;;;;;6.13;5.63;;;;;;;31.39;44.75;93894.31;5100238;28;20485;-36
2022/07/03 08:30:47;;;;;;;6.18;5.57;;;;;;;32.18;42.73;93885.38;5100742;28;20096;-36
2022/07/03 08:33:12;;;;;;;5.40;5.00;;;;;;;32.76;38.34;93891.53;5101348;28;20020;-36
2022/07/03 08:35:38;;;;;;;6.57;4.38;;;;;;;33.25;33.28;93887.38;5099250;28;20055;-36
2022/07/03 08:38:03;;;;;;;9.70;4.47;;;;;;;33.77;32.82;93887.47;5100756;28;20107;-36
2022/07/03 08:40:28;;;;;;;8.63;4.68;;;;;;;33.91;34.28;93881.94;5101031;28;20028;-36
2022/07/03 08:42:56;;;;;;;4.85;4.25;;;;;;;33.67;35.12;93884.47;5098102;28;20481;-36
2022/07/03 08:45:23;;;;;;;4.97;4.43;;;;;;;33.63;33.20;93877.94;5101190;28;20027;-38
2022/07/03 08:47:50;;;;;;;4.70;4.20;;;;;;;33.69;35.98;93875.91;5100872;28;20031;-39
2022/07/03 08:50:18;;;;;;;8.10;4.65;;;;;;;33.95;33.08;93876.25;5099023;28;20456;-39
2022/07/03 08:52:44;;;;;;;4.57;4.13;;;;;;;34.52;31.75;93879.84;5100837;28;20024;-39
2022/07/03 08:55:11;;;;;;;7.15;4.28;;;;;;;34.79;30.79;93873.69;5100763;28;20080;-36
2022/07/03 08:57:38;;;;;;;4.30;3.60;;;;;;;35.56;32.47;93880.84;5095201;28;20046;-37
2022/07/03 09:00:08;;;;;;;5.82;4.15;;;;;;;36.05;31.85;93875.41;5102047;28;20080;-37
2022/07/03 09:02:34;;;;;;;5.68;3.78;;;;;;;35.50;31.15;93866.44;5100967;28;20036;-37
2022/07/03 09:05:02;;;;;;;4.57;3.97;;;;;;;35.99;30.83;93881.88;5099515;28;20049;-37
2022/07/03 09:07:28;;;;;;;5.85;4.68;;;;;;;36.41;30.76;93887.78;5090369;28;20036;-37
2022/07/03 09:09:54;;;;;;;3.90;3.58;;;;;;;36.60;29.90;93882.13;5094868;28;20030;-37
2022/07/03 09:12:20;;;;;;;5.15;3.55;;;;;;;36.44;30.61;93874.16;5110586;28;20404;-37
2022/07/03 09:14:45;;;;;;;6.78;4.03;;;;;;;36.57;27.72;93866.28;5103588;28;20024;-37
2022/07/03 09:17:11;;;;;;;5.20;3.55;;;;;;;36.43;27.36;93878.47;5107479;28;20024;-36
2022/07/03 09:19:47;;;;;;;5.65;3.38;;;;;;;35.80;26.31;93881.00;5110219;28;20123;-36
2022/07/03 09:22:24;;;;;;;3.97;3.58;;;;;;;35.01;30.67;93876.81;5101140;27;20056;-36
2022/07/03 09:25:11;;;;;;;6.65;3.38;;;;;;;34.96;29.31;93877.41;5095627;28;20454;-37
2022/07/03 09:27:56;;;;;;;4.30;3.88;;;;;;;34.17;29.88;93876.56;5102871;28;20058;-36
2022/07/03 09:30:22;;;;;;;7.10;3.78;;;;;;;33.56;30.28;93880.00;5098329;28;20039;-36
2022/07/03 09:32:49;;;;;;;4.10;3.80;;;;;;;33.70;30.17;93885.22;5098327;28;20755;-36
2022/07/03 09:35:24;;;;;;;4.55;4.15;;;;;;;33.93;28.53;93881.97;5101250;28;20118;-37
2022/07/03 09:37:56;;;;;;;4.30;3.90;;;;;;;34.17;28.36;93878.72;5102042;28;20055;-36
2022/07/03 09:40:27;;;;;;;5.13;3.92;;;;;;;34.12;28.36;93880.81;5097047;27;20062;-38
2022/07/03 09:42:59;;;;;;;4.70;4.30;;;;;;;33.02;28.26;93870.53;5099215;28;20031;-37
2022/07/03 09:45:25;;;;;;;5.20;4.68;;;;;;;32.24;32.58;93876.22;5100234;28;20023;-39
2022/07/03 09:47:51;;;;;;;11.70;4.00;;;;;;;31.85;33.41;93879.66;5098786;28;20016;-39
2022/07/03 09:50:16;;;;;;;4.50;4.10;;;;;;;31.58;32.42;93878.34;5099030;28;20029;-39
2022/07/03 09:52:43;;;;;;;4.70;4.30;;;;;;;31.22;32.92;93880.34;5101583;28;20024;-39
2022/07/03 09:55:09;;;;;;;5.13;4.65;;;;;;;30.86;36.27;93877.34;5100178;28;20046;-39
2022/07/03 09:57:49;;;;;;;4.93;4.53;;;;;;;30.63;37.45;93870.31;5099038;28;20023;-39
2022/07/03 10:00:20;;;;;;;5.25;4.50;;;;;;;30.32;35.15;93861.66;5099235;28;20020;-39
2022/07/03 10:02:55;;;;;;;4.90;4.50;;;;;;;29.96;37.17;93870.63;5098200;28;20035;-39
2022/07/03 10:05:22;;;;;;;10.57;8.55;;;;;;;29.78;35.03;93864.38;5100679;28;20481;-39
2022/07/03 10:07:58;;;;;;;10.15;6.88;;;;;;;29.61;37.92;93865.28;5099865;28;20081;-39
2022/07/03 10:10:27;;;;;;;252.73;210.30;;;;;;;29.55;39.58;93855.84;5100120;28;20147;-38
2022/07/03 10:12:54;;;;;;;12.38;10.23;;;;;;;29.52;39.47;93854.34;5098861;28;20016;-38
2022/07/03 10:15:21;;;;;;;12.77;5.15;;;;;;;29.89;40.91;93859.72;5100186;28;20043;-38
2022/07/03 10:17:56;;;;;;;5.95;5.30;;;;;;;30.35;42.17;93860.28;5100178;28;20024;-38
2022/07/03 10:20:29;;;;;;;4.43;4.03;;;;;;;30.61;35.95;93856.03;5097820;28;20019;-39
2022/07/03 10:22:55;;;;;;;5.65;5.15;;;;;;;31.64;38.03;93854.94;5103266;28;20076;-38
2022/07/03 10:25:21;;;;;;;5.65;5.10;;;;;;;32.41;37.08;93852.25;5096463;28;20114;-38
2022/07/03 10:27:47;;;;;;;5.65;4.68;;;;;;;32.55;37.03;93846.81;5091753;28;20035;-39
2022/07/03 10:30:19;;;;;;;4.05;3.60;;;;;;;32.72;33.02;93842.84;5095233;28;20035;-38
2022/07/03 10:32:47;;;;;;;6.50;4.70;;;;;;;33.58;32.83;93840.66;5089080;28;20075;-39
2022/07/03 10:35:14;;;;;;;4.68;4.28;;;;;;;33.83;32.18;93829.53;5110292;28;20506;-38
2022/07/03 10:37:53;;;;;;;5.20;4.70;;;;;;;33.70;31.58;93834.38;5104285;28;20404;-38
2022/07/03 10:46:12;;;;;;;5.00;4.35;;;;;;;32.02;34.99;93833.66;5104617;28;20511;-38
2022/07/03 10:49:00;;;;;;;5.97;5.40;;;;;;;32.31;36.38;93826.34;5114209;28;20028;-38
2022/07/03 10:51:27;;;;;;;5.63;4.68;;;;;;;31.97;33.57;93819.94;5113886;28;20062;-38
2022/07/03 10:54:12;;;;;;;5.35;4.75;;;;;;;32.16;37.43;93822.47;5112105;28;20031;-38
2022/07/03 10:57:02;;;;;;;7.65;5.57;;;;;;;32.32;35.54;93822.06;5114022;28;20050;-38
2022/07/03 10:59:45;;;;;;;8.13;4.68;;;;;;;32.09;35.93;93815.22;5113831;28;20038;-38
2022/07/03 11:02:36;;;;;;;5.18;4.78;;;;;;;31.59;38.36;93828.44;5113727;28;20027;-38
2022/07/03 11:05:03;;;;;;;7.13;5.00;;;;;;;31.58;37.77;93821.25;5113161;28;20059;-38
2022/07/03 11:07:31;;;;;;;5.40;4.97;;;;;;;32.24;36.56;93824.06;5109006;28;20217;-39
2022/07/03 11:10:05;;;;;;;7.18;5.78;;;;;;;31.98;34.80;93819.28;5113917;28;20506;-38
2022/07/03 11:12:56;;;;;;;5.90;5.10;;;;;;;31.48;33.78;93826.03;5113558;28;20038;-38
2022/07/03 11:15:33;;;;;;;5.78;5.20;;;;;;;31.06;36.52;93823.63;5112230;28;20046;-38
2022/07/03 11:18:27;;;;;;;5.25;4.75;;;;;;;30.60;37.27;93831.06;5113696;28;20104;-38
2022/07/03 11:20:52;;;;;;;7.63;6.93;;;;;;;30.27;37.73;93826.59;5113373;28;20060;-37
2022/07/03 11:23:30;;;;;;;12.02;5.80;;;;;;;29.76;37.72;93820.91;5113633;28;20035;-39
2022/07/03 11:25:56;;;;;;;6.95;5.03;;;;;;;29.37;40.71;93819.03;5103222;28;20023;-38
2022/07/03 11:28:31;;;;;;;6.13;5.63;;;;;;;28.88;43.75;93825.34;5104289;28;20044;-38
2022/07/03 11:33:46;;;;;;;18.13;6.88;;;;;;;28.39;48.76;93819.44;5101982;28;20028;-38
2022/07/03 11:36:15;;;;;;;10.40;5.30;;;;;;;28.02;50.04;93820.31;5106853;28;20107;-38
2022/07/03 11:38:40;;;;;;;6.55;5.50;;;;;;;27.58;50.41;93818.66;5106226;28;20027;-38
2022/07/03 11:41:08;;;;;;;8.60;6.47;;;;;;;27.31;53.07;93827.56;5103150;28;20032;-38
2022/07/03 11:43:34;;;;;;;7.93;7.13;;;;;;;26.96;53.98;93831.88;5096579;28;20052;-38
2022/07/03 11:46:00;;;;;;;7.45;5.93;;;;;;;26.82;55.62;93830.59;5105080;28;20217;-38
2022/07/03 11:48:27;;;;;;;6.70;6.13;;;;;;;26.69;58.12;93837.88;5111501;28;20023;-37
2022/07/03 11:50:57;;;;;;;8.70;6.63;;;;;;;26.35;58.64;93847.81;5092423;28;20034;-37
2022/07/03 11:53:28;;;;;;;8.15;6.82;;;;;;;26.05;60.99;93855.69;5096210;28;20034;-37
2022/07/03 11:55:54;;;;;;;9.27;7.32;;;;;;;25.60;62.23;93848.75;5102867;28;20078;-37
2022/07/03 11:58:20;;;;;;;10.20;7.28;;;;;;;25.21;64.85;93852.63;5102644;28;20027;-37
2022/07/03 12:00:46;;;;;;;8.43;7.45;;;;;;;25.00;65.78;93860.78;5101132;28;20020;-38
2022/07/03 12:03:18;;;;;;;9.52;8.02;;;;;;;24.78;66.18;93863.28;5102900;28;20028;-37
2022/07/03 12:06:09;;;;;;;10.52;8.63;;;;;;;24.65;68.02;93858.38;5101056;28;20540;-37
2022/07/03 12:08:35;;;;;;;11.25;9.35;;;;;;;24.36;70.50;93856.31;5102523;28;20138;-37
2022/07/03 12:11:06;;;;;;;9.82;8.85;;;;;;;24.33;70.89;93851.91;5102014;28;20111;-37
2022/07/03 12:13:33;;;;;;;10.30;8.80;;;;;;;24.41;71.72;93848.75;5100811;28;20024;-37
2022/07/03 12:16:13;;;;;;;11.35;7.72;;;;;;;24.67;70.69;93853.56;5100317;28;20527;-37
2022/07/03 12:18:51;;;;;;;12.32;10.23;;;;;;;24.98;70.87;93858.59;5091741;28;20489;-37
2022/07/03 12:21:20;;;;;;;11.40;10.10;;;;;;;25.15;70.16;93863.66;5091740;28;20028;-37
2022/07/03 12:23:54;;;;;;;9.73;8.80;;;;;;;25.23;70.65;93844.22;5097009;28;20024;-37